createdAt,value
2019-05-18T00:00:41.803Z,968.49
2019-05-18T00:05:48.054Z,968.47
2019-05-18T00:10:49.463Z,968.44
2019-05-18T00:15:49.048Z,968.48
2019-05-18T00:20:49.835Z,968.48
2019-05-18T00:25:49.198Z,968.35
2019-05-18T00:30:49.479Z,968.37
2019-05-18T00:35:49.370Z,968.4
2019-05-18T00:40:49.403Z,968.36
2019-05-18T00:45:49.587Z,968.27
2019-05-18T00:50:49.583Z,968.28
2019-05-18T00:55:49.703Z,968.37
2019-05-18T01:00:56.251Z,968.36
2019-05-18T01:05:56.143Z,968.29
2019-05-18T01:10:56.135Z,968.31
2019-05-18T01:15:56.251Z,968.36
2019-05-18T01:20:56.675Z,968.34
2019-05-18T01:25:56.645Z,968.24
2019-05-18T01:30:56.680Z,968.32
2019-05-18T01:35:56.854Z,968.31
2019-05-18T01:40:56.892Z,968.3
2019-05-18T01:45:57.258Z,968.34
2019-05-18T01:50:57.038Z,968.4
2019-05-18T01:56:03.670Z,968.37
2019-05-18T02:01:04.450Z,968.29
2019-05-18T02:06:04.453Z,968.24
2019-05-18T02:11:04.570Z,968.25
2019-05-18T02:16:04.685Z,968.25
2019-05-18T02:21:04.725Z,968.23
2019-05-18T02:26:04.733Z,968.22
2019-05-18T02:31:04.871Z,968.15
2019-05-18T02:36:04.912Z,968.09
2019-05-18T02:41:04.939Z,968.1
2019-05-18T02:46:05.064Z,968.14
2019-05-18T02:51:12.476Z,968.1
2019-05-18T02:56:11.616Z,968.1
2019-05-18T03:01:11.743Z,968.08
2019-05-18T03:06:11.806Z,968.08
2019-05-18T03:11:11.838Z,968.05
2019-05-18T03:16:12.033Z,967.97
2019-05-18T03:21:11.963Z,967.95
2019-05-18T03:26:12.115Z,967.88
2019-05-18T03:31:12.172Z,967.97
2019-05-18T03:36:12.201Z,968.01
2019-05-18T03:41:12.206Z,967.94
2019-05-18T03:46:16.590Z,967.92
2019-05-18T03:51:17.566Z,967.91
2019-05-18T03:56:17.570Z,967.89
2019-05-18T04:01:17.831Z,967.84
2019-05-18T04:06:17.839Z,967.86
2019-05-18T04:11:17.871Z,967.86
2019-05-18T04:16:17.911Z,967.89
2019-05-18T04:21:17.950Z,967.95
2019-05-18T04:26:18.326Z,967.99
2019-05-18T04:31:18.294Z,968.03
2019-05-18T04:36:18.579Z,968.06
2019-05-18T04:41:25.242Z,968.13
2019-05-18T04:46:25.520Z,968.2
2019-05-18T04:51:25.763Z,968.25
2019-05-18T04:56:26.127Z,968.24
2019-05-18T05:01:25.788Z,968.24
2019-05-18T05:06:25.873Z,968.22
2019-05-18T05:11:25.904Z,968.25
2019-05-18T05:16:25.905Z,968.21
2019-05-18T05:21:26.095Z,968.18
2019-05-18T05:26:26.091Z,968.2
2019-05-18T05:31:26.647Z,968.26
2019-05-18T05:36:30.793Z,968.26
2019-05-18T05:41:30.763Z,968.27
2019-05-18T05:46:30.879Z,968.27
2019-05-18T05:51:31.814Z,968.33
2019-05-18T05:56:31.851Z,968.39
2019-05-18T06:01:31.888Z,968.43
2019-05-18T06:06:32.072Z,968.42
2019-05-18T06:11:32.111Z,968.46
2019-05-18T06:16:32.130Z,968.4
2019-05-18T06:21:32.316Z,968.41
2019-05-18T06:26:32.298Z,968.43
2019-05-18T06:31:38.991Z,968.44
2019-05-18T06:36:39.022Z,968.46
2019-05-18T06:41:39.060Z,968.48
2019-05-18T06:46:39.096Z,968.51
2019-05-18T06:51:39.279Z,968.47
2019-05-18T06:56:39.275Z,968.58
2019-05-18T07:01:39.331Z,968.59
2019-05-18T07:06:39.459Z,968.6
2019-05-18T07:11:39.623Z,968.56
2019-05-18T07:16:39.982Z,968.48
2019-05-18T07:21:39.919Z,968.51
2019-05-18T07:26:46.241Z,968.45
2019-05-18T07:31:46.263Z,968.43
2019-05-18T07:36:47.208Z,968.41
2019-05-18T07:41:47.904Z,968.43
2019-05-18T07:46:47.363Z,968.38
2019-05-18T07:51:47.405Z,968.38
2019-05-18T07:56:47.445Z,968.39
2019-05-18T08:01:47.560Z,968.41
2019-05-18T08:06:47.575Z,968.42
2019-05-18T08:11:47.718Z,968.38
2019-05-18T08:16:47.808Z,968.34
2019-05-18T08:21:54.394Z,968.33
2019-05-18T08:26:54.723Z,968.36
2019-05-18T08:31:54.838Z,968.32
2019-05-18T08:36:54.958Z,968.26
2019-05-18T08:41:54.963Z,968.19
2019-05-18T08:46:55.000Z,968.18
2019-05-18T08:52:09.111Z,968.13
2019-05-18T08:56:55.212Z,968.13
2019-05-18T09:01:55.251Z,968.14
2019-05-18T09:06:55.396Z,968.13
2019-05-18T09:11:55.444Z,968.14
2019-05-18T09:17:01.783Z,968.23
2019-05-18T09:22:01.983Z,968.24
2019-05-18T09:27:02.010Z,968.22
2019-05-18T09:32:02.042Z,968.18
2019-05-18T09:37:02.269Z,968.16
2019-05-18T09:42:02.411Z,968.17
2019-05-18T09:47:02.389Z,968.09
2019-05-18T09:52:02.927Z,968.04
2019-05-18T09:57:02.707Z,968.04
2019-05-18T10:02:02.823Z,967.97
2019-05-18T10:07:02.821Z,968.02
2019-05-18T10:12:09.346Z,968.05
2019-05-18T10:17:09.222Z,968.05
2019-05-18T10:22:09.258Z,968.03
2019-05-18T10:27:09.410Z,967.95
2019-05-18T10:32:09.599Z,967.91
2019-05-18T10:37:09.636Z,967.89
2019-05-18T10:42:09.792Z,967.87
2019-05-18T10:47:45.695Z,967.81
2019-05-18T10:52:45.695Z,967.75
2019-05-18T10:57:46.177Z,967.73
2019-05-18T11:02:46.162Z,967.68
2019-05-18T11:07:52.491Z,967.62
2019-05-18T11:12:52.968Z,967.59
2019-05-18T11:17:53.244Z,967.57
2019-05-18T11:22:53.425Z,967.56
2019-05-18T11:27:53.465Z,967.5
2019-05-18T11:32:53.580Z,967.41
2019-05-18T11:37:53.583Z,967.38
2019-05-18T11:42:53.722Z,967.39
2019-05-18T11:47:53.922Z,967.33
2019-05-18T11:52:53.841Z,967.32
2019-05-18T11:57:53.961Z,967.25
2019-05-18T12:03:00.185Z,967.18
2019-05-18T12:08:00.303Z,967.12
2019-05-18T12:13:01.232Z,967.07
2019-05-18T12:18:01.228Z,967.04
2019-05-18T12:23:01.280Z,967.0
2019-05-18T12:28:01.472Z,966.92
2019-05-18T12:33:01.842Z,966.95
2019-05-18T12:38:01.772Z,966.91
2019-05-18T12:43:01.667Z,966.88
2019-05-18T12:48:01.658Z,966.84
2019-05-18T12:53:01.842Z,966.89
2019-05-18T12:58:10.138Z,966.85
2019-05-18T13:03:12.165Z,966.81
2019-05-18T13:08:12.285Z,966.75
2019-05-18T13:13:12.513Z,966.67
2019-05-18T13:18:12.505Z,966.65
2019-05-18T13:23:12.517Z,966.66
2019-05-18T13:28:12.553Z,966.72
2019-05-18T13:33:12.673Z,966.68
2019-05-18T13:38:12.688Z,966.78
2019-05-18T13:43:13.320Z,966.67
2019-05-18T13:48:13.604Z,966.65
2019-05-18T13:53:19.924Z,966.67
2019-05-18T13:58:19.964Z,966.77
2019-05-18T14:03:20.083Z,966.84
2019-05-18T14:08:20.302Z,967.12
2019-05-18T14:13:20.239Z,967.23
2019-05-18T14:18:20.254Z,967.18
2019-05-18T14:23:20.292Z,967.13
2019-05-18T14:28:20.408Z,967.2
2019-05-18T14:33:20.445Z,967.34
2019-05-18T14:38:20.805Z,967.47
2019-05-18T14:43:20.819Z,967.53
2019-05-18T14:48:25.080Z,967.44
2019-05-18T14:53:25.687Z,967.44
2019-05-18T14:58:26.007Z,967.43
2019-05-18T15:03:26.048Z,967.4
2019-05-18T15:08:26.166Z,967.34
2019-05-18T15:13:26.188Z,967.34
2019-05-18T15:18:26.280Z,967.31
2019-05-18T15:23:26.312Z,967.18
2019-05-18T15:28:26.426Z,967.08
2019-05-18T15:33:26.540Z,966.99
2019-05-18T15:38:26.547Z,966.89
2019-05-18T15:43:33.366Z,966.87
2019-05-18T15:48:33.753Z,966.72
2019-05-18T15:53:33.685Z,966.61
2019-05-18T15:58:33.801Z,966.5
2019-05-18T16:03:33.806Z,966.47
2019-05-18T16:08:33.846Z,966.67
2019-05-18T16:13:34.012Z,966.54
2019-05-18T16:18:34.077Z,966.55
2019-05-18T16:23:34.114Z,966.74
2019-05-18T16:28:34.381Z,966.72
2019-05-18T16:33:34.493Z,966.71
2019-05-18T16:38:40.773Z,966.72
2019-05-18T16:43:40.809Z,966.74
2019-05-18T16:48:41.653Z,966.79
2019-05-18T16:53:41.682Z,966.79
2019-05-18T16:58:41.871Z,966.8
2019-05-18T17:03:41.908Z,966.84
2019-05-18T17:08:42.074Z,966.89
2019-05-18T17:13:42.108Z,966.88
2019-05-18T17:18:42.880Z,966.93
2019-05-18T17:23:42.206Z,966.96
2019-05-18T17:28:42.242Z,967.01
2019-05-18T17:33:48.589Z,967.0
2019-05-18T17:38:49.104Z,967.01
2019-05-18T17:43:49.497Z,967.12
2019-05-18T17:48:49.541Z,967.15
2019-05-18T17:53:49.724Z,967.23
2019-05-18T17:58:49.648Z,967.25
2019-05-18T18:03:49.776Z,967.3
2019-05-18T18:08:49.774Z,967.35
2019-05-18T18:13:49.889Z,967.35
2019-05-18T18:18:49.942Z,967.38
2019-05-18T18:23:55.737Z,967.35
2019-05-18T18:28:56.417Z,967.46
2019-05-18T18:33:57.090Z,967.59
2019-05-18T18:38:57.064Z,967.71
2019-05-18T18:43:57.101Z,967.67
2019-05-18T18:48:57.255Z,967.64
2019-05-18T18:53:57.291Z,967.55
2019-05-18T18:58:57.410Z,967.69
2019-05-18T19:03:57.435Z,967.83
2019-05-18T19:08:57.475Z,967.83
2019-05-18T19:13:57.665Z,967.84
2019-05-18T19:18:57.680Z,967.91
2019-05-18T19:24:04.032Z,967.9
2019-05-18T19:29:04.276Z,967.92
2019-05-18T19:34:04.186Z,968.02
2019-05-18T19:39:04.800Z,967.94
2019-05-18T19:44:04.915Z,967.99
2019-05-18T19:49:04.974Z,967.99
2019-05-18T19:54:05.129Z,967.99
2019-05-18T19:59:05.133Z,968.14
2019-05-18T20:04:05.163Z,968.27
2019-05-18T20:09:05.370Z,968.32
2019-05-18T20:14:05.335Z,968.31
2019-05-18T20:19:12.197Z,968.32
2019-05-18T20:24:12.309Z,968.26
2019-05-18T20:29:12.930Z,968.2
2019-05-18T20:34:12.969Z,968.09
2019-05-18T20:39:13.046Z,968.13
2019-05-18T20:44:13.082Z,968.1
2019-05-18T20:49:13.231Z,968.1
2019-05-18T20:54:13.270Z,968.06
2019-05-18T20:59:13.276Z,968.05
2019-05-18T21:04:13.391Z,968.04
2019-05-18T21:09:13.402Z,968.07
2019-05-18T21:14:19.781Z,968.01
2019-05-18T21:19:20.083Z,968.08
2019-05-18T21:24:20.618Z,968.02
2019-05-18T21:29:20.736Z,968.06
2019-05-18T21:34:20.850Z,968.17
2019-05-18T21:39:20.787Z,968.12
2019-05-18T21:44:20.833Z,968.12
2019-05-18T21:49:22.234Z,968.14
2019-05-18T21:54:22.249Z,968.13
2019-05-18T21:59:22.276Z,968.17
2019-05-18T22:04:22.395Z,968.27
2019-05-18T22:09:29.028Z,968.2
2019-05-18T22:14:29.223Z,968.17
2019-05-18T22:19:29.414Z,968.2
2019-05-18T22:24:29.378Z,968.23
2019-05-18T22:29:29.494Z,968.25
2019-05-18T22:34:29.522Z,968.22
2019-05-18T22:39:30.130Z,968.15
2019-05-18T22:44:30.558Z,968.18
2019-05-18T22:49:30.574Z,968.1
2019-05-18T22:54:30.811Z,968.08
2019-05-18T22:59:30.792Z,968.03
2019-05-18T23:04:37.465Z,968.07
2019-05-18T23:09:37.610Z,968.03
2019-05-18T23:14:37.890Z,967.94
2019-05-18T23:19:38.659Z,967.99
2019-05-18T23:24:38.003Z,967.92
2019-05-18T23:29:38.191Z,967.85
2019-05-18T23:34:38.137Z,967.85
2019-05-18T23:39:38.171Z,967.77
2019-05-18T23:44:38.196Z,967.78
2019-05-18T23:49:38.380Z,967.74
2019-05-18T23:54:38.395Z,967.67
2019-05-18T23:59:58.084Z,967.65
